Time;durP1;ratioP1;P1;durP2;ratioP2;P2;SDS_P1;SDS_P2;PMS_P1;PMS_P2;Temp;Humidity;BMP_temperature;BMP_pressure;BME280_temperature;BME280_humidity;BME280_pressure;Samples;Min_cycle;Max_cycle;Signal;HPM_P1;HPM_P2
2023/08/10 00:01:21;;;;;;;1.70;1.30;;;;;;;16.85;100.00;96641.16;5038124;28;20225;-70
2023/08/10 00:03:47;;;;;;;2.35;1.23;;;;;;;16.93;100.00;96648.91;5038143;28;20744;-70
2023/08/10 00:06:14;;;;;;;2.08;1.23;;;;;;;16.93;100.00;96640.94;5038823;28;20215;-70
2023/08/10 00:08:40;;;;;;;1.92;1.13;;;;;;;16.82;100.00;96644.22;5036856;28;20647;-70
2023/08/10 00:11:07;;;;;;;2.15;1.35;;;;;;;16.83;100.00;96651.19;5037670;28;20685;-70
2023/08/10 00:13:35;;;;;;;3.28;1.58;;;;;;;16.96;100.00;96646.66;5036949;28;20279;-70
2023/08/10 00:16:01;;;;;;;3.30;1.65;;;;;;;16.87;100.00;96652.44;5037631;28;20202;-70
2023/08/10 00:18:28;;;;;;;2.05;1.10;;;;;;;16.87;100.00;96652.44;5036750;28;20205;-70
2023/08/10 00:20:55;;;;;;;2.35;1.55;;;;;;;16.90;100.00;96652.81;5038196;28;20225;-70
2023/08/10 00:23:21;;;;;;;1.35;0.93;;;;;;;16.94;100.00;96645.25;5038204;28;20225;-70
2023/08/10 00:25:48;;;;;;;1.65;1.05;;;;;;;16.93;100.00;96638.28;5037403;28;20205;-70
2023/08/10 00:28:16;;;;;;;2.47;0.98;;;;;;;16.83;100.00;96641.38;5037693;28;20670;-70
2023/08/10 00:30:44;;;;;;;2.80;1.40;;;;;;;16.92;100.00;96644.66;5037581;28;20780;-70
2023/08/10 00:33:11;;;;;;;1.58;1.20;;;;;;;16.71;100.00;96644.84;5037615;28;20236;-70
2023/08/10 00:35:39;;;;;;;2.05;1.02;;;;;;;16.99;100.00;96640.13;5037746;28;20209;-70
2023/08/10 00:38:07;;;;;;;1.83;1.20;;;;;;;16.59;100.00;96636.66;5037892;28;20204;-70
2023/08/10 00:40:33;;;;;;;1.85;1.10;;;;;;;16.49;100.00;96646.06;5037432;28;20237;-70
2023/08/10 00:43:01;;;;;;;2.88;2.05;;;;;;;16.72;100.00;96654.47;5037196;28;20229;-70
2023/08/10 00:45:28;;;;;;;1.55;1.10;;;;;;;16.94;100.00;96647.91;5037529;28;20209;-70
2023/08/10 00:47:56;;;;;;;1.70;1.10;;;;;;;16.86;100.00;96648.94;5036712;28;20201;-70
2023/08/10 00:50:24;;;;;;;1.60;1.20;;;;;;;16.86;100.00;96648.13;5037644;28;20213;-70
2023/08/10 00:52:51;;;;;;;3.22;1.50;;;;;;;16.87;100.00;96652.44;5037207;28;20221;-70
2023/08/10 00:55:17;;;;;;;1.85;1.20;;;;;;;16.82;100.00;96644.22;5037464;28;20438;-70
2023/08/10 00:57:44;;;;;;;1.77;1.52;;;;;;;16.75;100.00;96643.41;5036625;28;20762;-70
2023/08/10 01:00:12;;;;;;;2.65;1.48;;;;;;;16.90;100.00;96636.03;5037193;28;20221;-70
2023/08/10 01:02:39;;;;;;;4.15;1.45;;;;;;;16.94;100.00;96640.75;5037276;28;20229;-70
2023/08/10 01:05:10;;;;;;;1.33;1.23;;;;;;;17.13;100.00;96643.38;5036943;28;20209;-70
2023/08/10 01:07:49;;;;;;;2.63;1.23;;;;;;;17.14;100.00;96636.19;5036442;28;20739;-70
2023/08/10 01:10:23;;;;;;;1.88;1.38;;;;;;;17.16;100.00;96639.50;5036434;28;20205;-70
2023/08/10 01:12:54;;;;;;;2.15;1.55;;;;;;;17.08;100.00;96644.22;5036859;28;20232;-70
2023/08/10 01:15:33;;;;;;;2.25;1.23;;;;;;;17.19;100.00;96639.88;5037620;28;20623;-70
2023/08/10 01:18:03;;;;;;;1.98;1.40;;;;;;;17.19;100.00;96642.53;5036087;28;20205;-70
2023/08/10 01:20:32;;;;;;;1.42;0.88;;;;;;;17.12;100.00;96647.06;5037035;28;20236;-70
2023/08/10 01:23:10;;;;;;;1.40;1.08;;;;;;;17.13;100.00;96645.22;5036910;28;20235;-70
2023/08/10 01:25:40;;;;;;;1.85;1.02;;;;;;;17.10;100.00;96649.09;5036458;28;20203;-70
2023/08/10 01:28:08;;;;;;;1.20;0.95;;;;;;;16.85;100.00;96643.81;5035850;28;20204;-70
2023/08/10 01:30:35;;;;;;;6.20;1.23;;;;;;;16.89;100.00;96635.22;5036692;28;20692;-70
2023/08/10 01:33:02;;;;;;;1.75;1.17;;;;;;;16.90;100.00;96636.03;5036535;28;20240;-70
2023/08/10 01:35:29;;;;;;;2.28;1.40;;;;;;;16.88;100.00;96638.91;5036611;28;20205;-70
2023/08/10 01:37:55;;;;;;;5.28;1.40;;;;;;;16.80;100.00;96641.78;5036357;28;20205;-70
2023/08/10 01:40:22;;;;;;;1.92;1.20;;;;;;;16.79;100.00;96644.63;5036818;28;20727;-70
2023/08/10 01:42:49;;;;;;;2.47;1.10;;;;;;;16.99;100.00;96640.91;5035337;28;20231;-70
2023/08/10 01:45:16;;;;;;;1.23;1.13;;;;;;;16.83;100.00;96641.38;5036615;28;20212;-70
2023/08/10 01:47:49;;;;;;;2.08;1.20;;;;;;;17.05;100.00;96645.44;5036423;28;20201;-70
2023/08/10 01:50:18;;;;;;;2.55;1.30;;;;;;;16.97;100.00;96644.81;5036444;28;20228;-70
2023/08/10 01:52:50;;;;;;;1.98;1.13;;;;;;;16.98;100.00;96641.13;5035644;28;20731;-70
2023/08/10 01:55:17;;;;;;;2.05;1.33;;;;;;;16.85;100.00;96654.47;5036417;28;20657;-70
2023/08/10 01:57:44;;;;;;;2.28;1.10;;;;;;;16.79;100.00;96645.47;5035536;28;20209;-70
2023/08/10 02:00:13;;;;;;;1.48;1.08;;;;;;;16.88;100.00;96646.06;5036075;28;20224;-70
2023/08/10 02:02:40;;;;;;;3.85;1.40;;;;;;;16.62;100.00;96654.03;5036352;28;20236;-70
2023/08/10 02:05:07;;;;;;;2.35;1.30;;;;;;;16.58;100.00;96652.81;5036036;28;20225;-70
2023/08/10 02:07:33;;;;;;;2.72;1.35;;;;;;;16.59;100.00;96655.28;5035064;28;20216;-70
2023/08/10 02:10:00;;;;;;;1.60;1.00;;;;;;;16.54;100.00;96655.06;5036568;28;20211;-70
2023/08/10 02:12:27;;;;;;;2.30;1.20;;;;;;;16.54;100.00;96654.25;5035979;28;20728;-70
2023/08/10 02:14:54;;;;;;;2.55;1.20;;;;;;;16.57;100.00;96653.84;5035987;28;20216;-70
2023/08/10 02:17:22;;;;;;;2.05;1.30;;;;;;;16.67;100.00;96667.56;5035317;28;20209;-70
2023/08/10 02:19:48;;;;;;;1.70;1.15;;;;;;;16.45;100.00;96654.66;5036060;28;20205;-70
2023/08/10 02:22:15;;;;;;;1.20;1.00;;;;;;;16.56;100.00;96657.53;5035707;28;20221;-70
2023/08/10 02:24:41;;;;;;;1.85;1.10;;;;;;;16.58;100.00;96656.28;5035612;28;20220;-70
2023/08/10 02:27:08;;;;;;;3.65;1.73;;;;;;;16.46;100.00;96657.13;5034748;28;20551;-70
2023/08/10 02:29:35;;;;;;;1.40;0.90;;;;;;;16.44;100.00;96656.47;5035913;28;20638;-70
2023/08/10 02:32:01;;;;;;;2.13;1.33;;;;;;;16.45;100.00;96652.81;5032488;28;20205;-70
2023/08/10 02:34:29;;;;;;;2.45;1.38;;;;;;;16.27;100.00;96657.09;5035959;28;20205;-70
2023/08/10 02:36:56;;;;;;;1.92;1.20;;;;;;;16.07;100.00;96654.31;5034683;28;20212;-70
2023/08/10 02:39:22;;;;;;;1.35;1.17;;;;;;;15.90;100.00;96652.25;5035551;28;20210;-70
2023/08/10 02:41:49;;;;;;;3.13;1.30;;;;;;;15.98;100.00;96655.53;5035549;28;20228;-70
2023/08/10 02:44:15;;;;;;;2.92;1.33;;;;;;;16.04;100.00;96654.72;5036372;28;20201;-70
2023/08/10 02:46:42;;;;;;;2.67;1.75;;;;;;;16.30;100.00;96644.19;5035391;28;20283;-70
2023/08/10 02:49:08;;;;;;;4.70;1.30;;;;;;;16.29;100.00;96652.38;5035144;28;21354;-70
2023/08/10 02:51:36;;;;;;;3.70;1.90;;;;;;;16.44;100.00;96650.34;5036063;28;20204;-70
2023/08/10 02:54:03;;;;;;;2.65;1.38;;;;;;;16.44;100.00;96658.34;5034255;28;20336;-70
2023/08/10 02:56:29;;;;;;;2.33;1.30;;;;;;;16.19;100.00;96659.88;5035055;28;20216;-70
2023/08/10 02:58:56;;;;;;;4.05;1.30;;;;;;;16.26;100.00;96664.22;5036207;28;20228;-70
2023/08/10 03:01:22;;;;;;;2.25;1.58;;;;;;;16.06;100.00;96671.31;5034973;28;20224;-70
2023/08/10 03:03:49;;;;;;;1.90;1.23;;;;;;;15.97;100.00;96674.34;5035130;28;21009;-70
2023/08/10 03:06:15;;;;;;;2.58;1.17;;;;;;;16.08;100.00;96671.91;5035839;28;20208;-70
2023/08/10 03:08:43;;;;;;;1.98;1.40;;;;;;;16.29;100.00;96666.47;5033778;28;20978;-70
2023/08/10 03:11:10;;;;;;;2.25;1.38;;;;;;;15.99;100.00;96664.34;5035298;28;20211;-70
2023/08/10 03:13:36;;;;;;;2.10;1.58;;;;;;;16.01;100.00;96670.25;5035284;28;20716;-70
2023/08/10 03:16:03;;;;;;;1.48;1.17;;;;;;;16.11;100.00;96668.84;5035501;28;20201;-70
2023/08/10 03:18:29;;;;;;;2.45;1.48;;;;;;;16.11;100.00;96671.50;5034000;28;20673;-70
2023/08/10 03:20:56;;;;;;;4.80;1.35;;;;;;;15.88;100.00;96673.72;5035531;28;20225;-70
2023/08/10 03:23:22;;;;;;;2.45;1.65;;;;;;;15.98;100.00;96676.78;5035029;28;20232;-70
2023/08/10 03:25:50;;;;;;;3.45;1.65;;;;;;;16.15;100.00;96674.59;5035297;28;20205;-70
2023/08/10 03:28:17;;;;;;;2.67;1.40;;;;;;;15.86;100.00;96672.28;5034775;28;20576;-70
2023/08/10 03:30:43;;;;;;;1.92;1.40;;;;;;;16.09;100.00;96676.22;5035699;28;20201;-70
2023/08/10 03:33:10;;;;;;;2.13;1.38;;;;;;;15.90;100.00;96673.50;5034791;28;20237;-70
2023/08/10 03:35:36;;;;;;;2.35;1.35;;;;;;;15.78;100.00;96691.03;5035371;28;20201;-70
2023/08/10 03:38:03;;;;;;;2.42;1.45;;;;;;;15.81;100.00;96688.00;5034337;28;20209;-70
2023/08/10 03:40:30;;;;;;;3.05;1.50;;;;;;;15.79;100.00;96679.38;5035218;28;20201;-70
2023/08/10 03:42:57;;;;;;;2.40;1.13;;;;;;;15.92;100.00;96680.28;5034552;28;20732;-70
2023/08/10 03:45:24;;;;;;;2.05;1.25;;;;;;;15.90;100.00;96678.81;5035085;28;20202;-70
2023/08/10 03:47:50;;;;;;;2.85;1.58;;;;;;;16.09;100.00;96692.19;5034499;28;20216;-70
2023/08/10 03:50:17;;;;;;;2.22;1.40;;;;;;;16.17;100.00;96689.34;5038813;28;20244;-70
2023/08/10 03:52:43;;;;;;;2.25;1.33;;;;;;;15.98;100.00;96689.28;5038545;28;20587;-70
2023/08/10 03:55:11;;;;;;;4.45;2.10;;;;;;;16.00;100.00;96690.72;5039204;28;20205;-70
2023/08/10 03:57:38;;;;;;;2.97;1.80;;;;;;;15.99;100.00;96699.72;5037567;28;20232;-70
2023/08/10 04:00:07;;;;;;;5.18;1.98;;;;;;;16.15;100.00;96696.72;5038681;28;20204;-70
2023/08/10 04:02:34;;;;;;;2.15;1.10;;;;;;;16.21;100.00;96698.53;5038556;28;20224;-70
2023/08/10 04:05:05;;;;;;;2.13;1.30;;;;;;;16.34;100.00;96697.81;5038531;28;20205;-70
2023/08/10 04:07:33;;;;;;;2.08;1.02;;;;;;;16.27;100.00;96703.09;5037572;28;20984;-70
2023/08/10 04:10:00;;;;;;;1.80;1.30;;;;;;;16.04;100.00;96704.44;5039212;28;20220;-70
2023/08/10 04:12:27;;;;;;;4.00;1.92;;;;;;;16.13;100.00;96700.59;5038196;28;20217;-70
2023/08/10 04:14:53;;;;;;;1.88;1.30;;;;;;;16.17;100.00;96701.81;5037652;28;20201;-70
2023/08/10 04:17:21;;;;;;;2.33;1.40;;;;;;;16.14;100.00;96697.72;5037472;28;20670;-70
2023/08/10 04:19:48;;;;;;;3.30;1.40;;;;;;;15.95;100.00;96701.13;5038522;28;20205;-70
2023/08/10 04:22:15;;;;;;;3.50;1.23;;;;;;;15.89;100.00;96704.56;5037751;28;20257;-70
2023/08/10 04:24:41;;;;;;;2.58;1.33;;;;;;;15.89;100.00;96704.56;5038400;28;20608;-70
2023/08/10 04:27:08;;;;;;;1.73;1.42;;;;;;;16.01;100.00;96695.03;5038209;28;20296;-70
2023/08/10 04:29:34;;;;;;;3.05;1.30;;;;;;;15.97;100.00;96700.91;5037565;28;20216;-70
2023/08/10 04:32:01;;;;;;;1.80;1.45;;;;;;;15.80;100.00;96699.63;5037731;28;20877;-70
2023/08/10 04:34:29;;;;;;;3.42;1.83;;;;;;;15.97;100.00;96698.25;5037636;28;20205;-70
2023/08/10 04:36:55;;;;;;;8.68;1.65;;;;;;;15.65;100.00;96692.81;5037531;28;20205;-70
2023/08/10 04:39:22;;;;;;;3.38;1.67;;;;;;;15.68;100.00;96697.72;5037922;28;20201;-70
2023/08/10 04:41:48;;;;;;;2.03;1.13;;;;;;;15.52;100.00;96698.06;5037828;28;20256;-70
2023/08/10 04:44:15;;;;;;;1.92;1.63;;;;;;;15.56;100.00;96696.66;5038301;28;20205;-70
2023/08/10 04:46:41;;;;;;;2.90;1.58;;;;;;;15.58;100.00;96697.25;5037006;28;20205;-70
2023/08/10 04:49:08;;;;;;;3.17;1.50;;;;;;;15.54;100.00;96699.50;5037083;28;20201;-70
2023/08/10 04:51:36;;;;;;;1.75;1.27;;;;;;;15.73;100.00;96701.41;5038188;28;20201;-70
2023/08/10 04:54:03;;;;;;;3.05;1.67;;;;;;;15.70;100.00;96711.66;5037081;28;20221;-70
2023/08/10 04:56:30;;;;;;;3.20;1.70;;;;;;;15.72;100.00;96710.44;5037908;28;20216;-70
2023/08/10 04:58:56;;;;;;;2.40;1.35;;;;;;;15.72;100.00;96706.94;5036547;28;20902;-70
2023/08/10 05:01:23;;;;;;;1.90;1.50;;;;;;;15.81;100.00;96711.91;5037049;28;20232;-70
2023/08/10 05:03:50;;;;;;;1.90;1.27;;;;;;;16.06;100.00;96713.03;5036249;28;21058;-70
2023/08/10 05:06:17;;;;;;;1.83;1.20;;;;;;;16.18;100.00;96712.25;5037380;28;20205;-70
2023/08/10 05:08:44;;;;;;;3.53;1.80;;;;;;;16.39;100.00;96712.13;5036267;28;20201;-70
2023/08/10 05:11:11;;;;;;;1.85;1.30;;;;;;;16.20;100.00;96706.72;5036370;28;20201;-70
2023/08/10 05:13:38;;;;;;;3.55;1.17;;;;;;;16.11;100.00;96719.38;5036607;28;20225;-70
2023/08/10 05:16:04;;;;;;;1.55;1.20;;;;;;;16.22;100.00;96721.47;5037511;28;20205;-70
2023/08/10 05:18:31;;;;;;;2.63;1.65;;;;;;;16.18;100.00;96719.44;5036156;28;20220;-70
2023/08/10 05:20:59;;;;;;;2.35;1.52;;;;;;;16.31;100.00;96725.63;5037262;28;20205;-70
2023/08/10 05:23:26;;;;;;;2.55;1.40;;;;;;;16.17;100.00;96729.22;5037858;28;20228;-70
2023/08/10 05:25:53;;;;;;;1.80;1.17;;;;;;;16.52;100.00;96725.47;5036863;28;20578;-70
2023/08/10 05:28:20;;;;;;;3.47;1.60;;;;;;;16.32;100.00;96729.94;5035899;28;20201;-70
2023/08/10 05:30:46;;;;;;;3.25;1.73;;;;;;;16.44;100.00;96733.63;5037478;28;20216;-70
2023/08/10 05:33:13;;;;;;;2.95;1.98;;;;;;;16.51;100.00;96732.63;5036780;28;20229;-70
2023/08/10 05:35:40;;;;;;;3.75;1.45;;;;;;;16.65;100.00;96733.50;5036739;28;20209;-70
2023/08/10 05:38:08;;;;;;;2.72;1.65;;;;;;;16.66;100.00;96740.44;5035880;28;20216;-70
2023/08/10 05:40:34;;;;;;;3.50;1.80;;;;;;;16.87;100.00;96734.94;5036931;28;20745;-70
2023/08/10 05:43:02;;;;;;;3.25;1.42;;;;;;;17.14;100.00;96740.06;5035757;28;20252;-70
2023/08/10 05:45:29;;;;;;;9.50;2.35;;;;;;;17.05;100.00;96729.84;5036583;28;20211;-70
2023/08/10 05:47:55;;;;;;;3.47;1.73;;;;;;;17.24;100.00;96733.34;5035219;28;20567;-70
2023/08/10 05:50:22;;;;;;;4.32;2.22;;;;;;;17.37;100.00;96729.84;5036768;28;20209;-70
2023/08/10 05:52:49;;;;;;;2.80;1.75;;;;;;;17.29;100.00;96730.88;5035861;28;20221;-70
2023/08/10 05:55:16;;;;;;;7.38;2.45;;;;;;;17.35;100.00;96731.88;5036811;28;20210;-70
2023/08/10 05:57:43;;;;;;;2.75;1.70;;;;;;;17.40;100.00;96732.94;5035945;28;20204;-70
2023/08/10 06:00:13;;;;;;;3.72;2.35;;;;;;;17.83;100.00;96731.38;5035764;28;20205;-70
2023/08/10 06:02:40;;;;;;;3.55;1.55;;;;;;;17.76;100.00;96730.59;5035805;28;20228;-70
2023/08/10 06:05:07;;;;;;;3.33;1.65;;;;;;;18.00;100.00;96735.25;5036979;28;20197;-70
2023/08/10 06:07:34;;;;;;;2.60;1.85;;;;;;;17.99;100.00;96733.59;5035427;28;20227;-70
2023/08/10 06:10:01;;;;;;;3.10;1.30;;;;;;;17.82;100.00;96741.25;5035467;28;20196;-70
2023/08/10 06:12:27;;;;;;;2.10;1.45;;;;;;;17.95;100.00;96735.88;5035672;28;20217;-70
2023/08/10 06:14:54;;;;;;;2.78;1.60;;;;;;;17.85;100.00;96750.66;5034250;28;20880;-70
2023/08/10 06:17:22;;;;;;;3.90;0.98;;;;;;;18.07;100.00;96744.03;5031368;28;20685;-71
2023/08/10 06:19:51;;;;;;;3.33;1.45;;;;;;;18.13;100.00;96745.88;5035425;28;20201;-70
2023/08/10 06:22:19;;;;;;;1.23;0.77;;;;;;;17.93;100.00;96745.09;5035755;28;20286;-70
2023/08/10 06:24:46;;;;;;;2.25;1.35;;;;;;;18.11;100.00;96746.06;5035490;28;20201;-70
2023/08/10 06:27:12;;;;;;;1.63;1.20;;;;;;;18.22;100.00;96742.78;5033996;28;20585;-70
2023/08/10 06:29:39;;;;;;;3.40;1.52;;;;;;;18.31;100.00;96751.38;5035709;28;20205;-70
2023/08/10 06:32:07;;;;;;;2.42;1.27;;;;;;;18.55;100.00;96752.25;5035488;28;20596;-70
2023/08/10 06:34:35;;;;;;;2.15;1.13;;;;;;;18.64;100.00;96753.63;5035437;28;20205;-70
2023/08/10 06:37:02;;;;;;;2.17;1.17;;;;;;;18.54;100.00;96749.81;5034515;28;20208;-70
2023/08/10 06:39:28;;;;;;;1.67;1.10;;;;;;;18.60;100.00;96752.44;5035725;28;20216;-70
2023/08/10 06:41:55;;;;;;;1.27;0.98;;;;;;;18.56;100.00;96755.75;5035537;28;20236;-70
2023/08/10 06:44:22;;;;;;;1.00;0.80;;;;;;;18.56;100.00;96758.44;5035076;28;20208;-70
2023/08/10 06:46:48;;;;;;;1.90;1.17;;;;;;;18.67;100.00;96758.56;5035892;28;20318;-70
2023/08/10 06:49:16;;;;;;;3.58;0.80;;;;;;;18.68;100.00;96757.50;5034323;28;20209;-70
2023/08/10 06:51:44;;;;;;;1.77;1.35;;;;;;;18.81;100.00;96757.44;5035013;28;20204;-70
2023/08/10 06:54:11;;;;;;;2.60;1.10;;;;;;;18.78;100.00;96770.41;5034529;28;20209;-70
2023/08/10 06:56:38;;;;;;;1.40;0.90;;;;;;;18.85;100.00;96771.19;5035712;28;20209;-70
2023/08/10 06:59:04;;;;;;;1.08;0.57;;;;;;;18.85;100.00;96763.16;5034348;28;20201;-70
2023/08/10 07:01:31;;;;;;;3.03;0.90;;;;;;;18.64;100.00;96772.31;5035074;28;20212;-70
2023/08/10 07:03:58;;;;;;;0.70;0.70;;;;;;;18.61;100.00;96771.94;5035050;28;20725;-70
2023/08/10 07:06:24;;;;;;;1.38;0.85;;;;;;;18.93;100.00;96777.09;5035340;28;20270;-70
2023/08/10 07:08:53;;;;;;;0.65;0.50;;;;;;;18.93;100.00;96772.56;5033755;28;20684;-70
2023/08/10 07:11:19;;;;;;;0.77;0.60;;;;;;;18.94;100.00;96782.22;5035009;28;20300;-70
2023/08/10 07:13:46;;;;;;;0.80;0.65;;;;;;;19.09;100.00;96776.59;5034496;28;20229;-70
2023/08/10 07:16:13;;;;;;;1.42;0.60;;;;;;;19.07;100.00;96778.69;5034966;28;20208;-71
2023/08/10 07:18:39;;;;;;;0.93;0.68;;;;;;;19.12;100.00;96786.88;5034707;28;20680;-70
2023/08/10 07:21:06;;;;;;;0.98;0.60;;;;;;;19.23;100.00;96780.81;5035036;28;20250;-70
2023/08/10 07:23:33;;;;;;;2.50;0.73;;;;;;;19.35;100.00;96784.44;5036267;28;20228;-70
2023/08/10 07:26:01;;;;;;;0.65;0.60;;;;;;;19.51;100.00;96783.88;5039622;28;20209;-70
2023/08/10 07:28:28;;;;;;;1.23;0.50;;;;;;;19.57;100.00;96784.63;5037731;28;20749;-71
2023/08/10 07:30:54;;;;;;;0.80;0.70;;;;;;;19.47;100.00;96788.03;5038701;28;20205;-71
2023/08/10 07:33:21;;;;;;;1.00;0.70;;;;;;;19.71;100.00;96791.50;5039286;28;20320;-71
2023/08/10 07:35:48;;;;;;;1.33;0.80;;;;;;;19.63;100.00;96793.66;5038232;28;20205;-70
2023/08/10 07:38:16;;;;;;;2.58;1.10;;;;;;;19.90;100.00;96789.69;5037316;28;20213;-70
2023/08/10 07:40:42;;;;;;;1.15;0.80;;;;;;;19.95;100.00;96798.72;5039197;28;20201;-71
2023/08/10 07:43:11;;;;;;;1.33;0.90;;;;;;;19.86;100.00;96800.00;5038177;28;20252;-70
2023/08/10 07:45:37;;;;;;;0.73;0.52;;;;;;;20.07;100.00;96794.25;5037886;28;20217;-70
2023/08/10 07:48:04;;;;;;;6.53;0.98;;;;;;;20.29;100.00;96800.81;5037463;28;20228;-70
2023/08/10 07:50:31;;;;;;;0.82;0.65;;;;;;;20.38;100.00;96802.16;5039293;28;20228;-71
2023/08/10 07:52:57;;;;;;;0.80;0.55;;;;;;;20.45;100.00;96805.56;5037904;28;20390;-70
2023/08/10 07:55:24;;;;;;;0.70;0.50;;;;;;;20.52;95.62;96804.44;5037584;28;20201;-70
2023/08/10 07:57:51;;;;;;;1.27;0.70;;;;;;;20.57;89.75;96803.75;5037811;28;20212;-70
2023/08/10 08:00:19;;;;;;;1.02;0.70;;;;;;;20.77;100.00;96809.72;5038990;28;20228;-69
2023/08/10 08:02:46;;;;;;;2.22;0.65;;;;;;;20.76;100.00;96806.25;5038238;28;20240;-70
2023/08/10 08:05:12;;;;;;;0.40;0.40;;;;;;;20.36;97.34;96807.72;5038574;28;20205;-70
2023/08/10 08:07:39;;;;;;;1.13;0.82;;;;;;;20.25;93.61;96811.16;5038858;28;21045;-70
2023/08/10 08:10:06;;;;;;;0.40;0.38;;;;;;;20.62;93.39;96802.06;5038750;28;20198;-70
2023/08/10 08:12:33;;;;;;;1.10;0.65;;;;;;;20.67;93.50;96807.56;5039334;28;20221;-70
2023/08/10 08:14:59;;;;;;;1.85;0.95;;;;;;;20.62;91.11;96801.22;5038643;28;20228;-70
2023/08/10 08:17:27;;;;;;;1.27;0.28;;;;;;;20.86;94.86;96804.66;5038055;28;20764;-70
2023/08/10 08:19:57;;;;;;;0.40;0.40;;;;;;;20.79;93.32;96796.94;5039416;28;20216;-70
2023/08/10 08:22:23;;;;;;;1.65;0.60;;;;;;;21.11;91.96;96801.81;5038966;28;20233;-70
2023/08/10 08:24:51;;;;;;;0.70;0.60;;;;;;;21.15;97.97;96795.75;5038425;28;20208;-70
2023/08/10 08:27:18;;;;;;;0.40;0.40;;;;;;;21.10;94.00;96794.81;5038078;28;20308;-70
2023/08/10 08:29:44;;;;;;;0.90;0.45;;;;;;;21.14;89.38;96812.09;5038150;28;20433;-70
2023/08/10 08:32:11;;;;;;;1.83;0.70;;;;;;;21.06;93.32;96804.38;5037756;28;20320;-70
2023/08/10 08:34:39;;;;;;;0.50;0.40;;;;;;;21.37;84.37;96804.91;5037634;28;20214;-70
2023/08/10 08:37:05;;;;;;;1.35;0.60;;;;;;;21.10;84.84;96805.53;5036858;28;20672;-70
2023/08/10 08:39:32;;;;;;;1.00;0.77;;;;;;;21.24;94.05;96809.66;5037794;28;20201;-70
2023/08/10 08:41:59;;;;;;;0.73;0.57;;;;;;;21.33;90.10;96803.75;5037383;28;20680;-70
2023/08/10 08:44:26;;;;;;;1.20;0.80;;;;;;;21.17;100.00;96811.66;5039187;28;20205;-70
2023/08/10 08:46:52;;;;;;;0.98;0.60;;;;;;;21.18;100.00;96802.53;5038159;28;20204;-70
2023/08/10 08:49:19;;;;;;;0.63;0.50;;;;;;;21.32;90.16;96796.78;5037852;28;20204;-70
2023/08/10 08:51:48;;;;;;;1.60;1.05;;;;;;;20.87;89.48;96794.75;5038828;28;20205;-70
2023/08/10 08:54:15;;;;;;;1.55;0.70;;;;;;;21.37;91.28;96796.06;5037772;28;20220;-70
2023/08/10 08:56:42;;;;;;;2.42;0.63;;;;;;;21.67;89.17;96789.63;5037337;28;20197;-70
2023/08/10 08:59:08;;;;;;;1.25;0.70;;;;;;;21.59;92.32;96781.91;5037585;28;20205;-70
2023/08/10 09:01:35;;;;;;;1.40;0.85;;;;;;;21.90;89.16;96784.25;5039345;28;20665;-70
2023/08/10 09:04:01;;;;;;;0.80;0.60;;;;;;;21.92;94.29;96784.81;5037195;28;20232;-70
2023/08/10 09:06:28;;;;;;;0.80;0.60;;;;;;;22.04;85.68;96782.97;5037331;28;20220;-70
2023/08/10 09:08:56;;;;;;;1.27;0.73;;;;;;;21.89;85.46;96782.63;5037582;28;20945;-70
2023/08/10 09:11:22;;;;;;;1.08;0.60;;;;;;;22.02;85.92;96780.53;5038059;28;20205;-70
2023/08/10 09:14:05;;;;;;;0.88;0.70;;;;;;;22.07;78.01;96773.41;5037449;28;21175;-70
2023/08/10 09:16:32;;;;;;;1.15;0.82;;;;;;;22.03;78.91;96779.44;5037988;28;20216;-70
2023/08/10 09:18:58;;;;;;;1.23;0.63;;;;;;;21.92;84.24;96776.78;5036110;28;20213;-70
2023/08/10 09:21:25;;;;;;;3.58;0.73;;;;;;;21.55;83.46;96780.75;5037510;28;20205;-70
2023/08/10 09:23:54;;;;;;;1.02;0.50;;;;;;;22.20;79.98;96773.13;5036939;28;20229;-70
2023/08/10 09:26:23;;;;;;;0.80;0.70;;;;;;;22.01;83.87;96772.69;5037325;28;20205;-70
2023/08/10 09:28:51;;;;;;;1.80;1.15;;;;;;;21.94;80.01;96772.00;5036239;28;20205;-70
2023/08/10 09:31:25;;;;;;;0.98;0.73;;;;;;;22.12;83.22;96764.63;5035687;28;20213;-70
2023/08/10 09:33:54;;;;;;;1.23;0.70;;;;;;;22.50;86.39;96756.88;5036580;28;20709;-70
2023/08/10 09:36:23;;;;;;;1.10;0.63;;;;;;;22.77;85.09;96761.44;5037441;28;20210;-70
2023/08/10 09:38:50;;;;;;;2.25;0.75;;;;;;;23.08;85.30;96759.13;5036363;28;20279;-70
2023/08/10 09:41:19;;;;;;;0.65;0.63;;;;;;;23.14;84.99;96754.63;5036604;28;20254;-70
2023/08/10 09:43:47;;;;;;;0.65;0.50;;;;;;;23.00;87.85;96756.81;5035991;28;20697;-70
2023/08/10 09:46:15;;;;;;;0.70;0.50;;;;;;;23.41;87.37;96749.22;5036835;28;20474;-70
2023/08/10 09:48:44;;;;;;;0.90;0.63;;;;;;;23.11;82.27;96757.81;5036036;28;20204;-70
2023/08/10 09:51:12;;;;;;;0.82;0.68;;;;;;;23.39;81.62;96748.63;5037111;28;20280;-70
2023/08/10 09:53:39;;;;;;;3.00;0.93;;;;;;;22.88;80.12;96760.59;5037040;28;20221;-70
2023/08/10 09:56:07;;;;;;;0.80;0.60;;;;;;;23.39;77.70;96745.13;5037226;28;20201;-70
2023/08/10 09:58:34;;;;;;;1.30;0.73;;;;;;;23.59;79.74;96753.53;5035773;28;20213;-70
2023/08/10 10:01:03;;;;;;;0.73;0.52;;;;;;;23.65;72.83;96750.69;5036885;28;20209;-70
2023/08/10 10:03:31;;;;;;;1.15;0.70;;;;;;;23.06;76.28;96757.72;5036989;28;20258;-70
2023/08/10 10:05:58;;;;;;;1.00;0.90;;;;;;;22.97;78.12;96751.88;5037162;28;20300;-70
2023/08/10 10:08:26;;;;;;;1.25;0.70;;;;;;;23.53;76.44;96749.94;5036342;28;20208;-70
2023/08/10 10:10:57;;;;;;;3.15;1.65;;;;;;;23.74;80.04;96757.31;5036954;28;20206;-71
2023/08/10 10:13:24;;;;;;;1.02;0.60;;;;;;;23.49;74.30;96759.56;5036395;28;20763;-70
2023/08/10 10:15:54;;;;;;;2.33;0.68;;;;;;;23.30;69.62;96753.84;5036089;28;21030;-70
2023/08/10 10:18:22;;;;;;;0.68;0.60;;;;;;;22.87;77.83;96756.25;5036393;28;20216;-70
2023/08/10 10:20:49;;;;;;;3.67;0.93;;;;;;;23.05;82.77;96761.47;5036665;28;20214;-70
2023/08/10 10:23:18;;;;;;;0.85;0.75;;;;;;;23.60;75.32;96758.66;5036562;28;20582;-70
2023/08/10 10:25:57;;;;;;;0.77;0.50;;;;;;;24.04;76.94;96755.06;5036633;28;20216;-70
2023/08/10 10:28:23;;;;;;;1.02;0.70;;;;;;;24.00;69.96;96751.22;5035371;28;20251;-70
2023/08/10 10:30:55;;;;;;;0.80;0.60;;;;;;;24.40;70.63;96751.81;5036223;28;20231;-70
2023/08/10 10:33:24;;;;;;;1.05;0.70;;;;;;;23.85;73.96;96745.63;5036270;28;20259;-70
2023/08/10 10:36:07;;;;;;;1.27;0.68;;;;;;;24.12;74.24;96744.69;5036466;28;20912;-70
2023/08/10 10:38:34;;;;;;;1.08;0.77;;;;;;;23.94;73.24;96744.13;5035783;28;20418;-70
2023/08/10 10:41:09;;;;;;;2.05;0.70;;;;;;;24.10;73.98;96735.22;5036477;28;20201;-70
2023/08/10 10:43:35;;;;;;;0.80;0.47;;;;;;;23.09;75.07;96730.34;5036012;28;20228;-70
2023/08/10 10:46:02;;;;;;;1.27;0.63;;;;;;;23.50;79.80;96723.53;5036090;28;20586;-70
2023/08/10 10:48:35;;;;;;;0.98;0.70;;;;;;;24.06;77.49;96728.72;5035465;28;20588;-70
2023/08/10 10:51:03;;;;;;;3.55;0.77;;;;;;;24.01;81.30;96723.25;5036002;28;20744;-70
2023/08/10 10:53:32;;;;;;;0.75;0.60;;;;;;;24.41;76.26;96718.41;5036174;28;20248;-70
2023/08/10 10:55:59;;;;;;;1.40;0.80;;;;;;;24.88;73.30;96715.72;5036246;28;20255;-70
2023/08/10 10:58:29;;;;;;;0.90;0.60;;;;;;;25.06;71.02;96709.19;5035197;28;20201;-70
2023/08/10 11:00:55;;;;;;;1.00;0.60;;;;;;;24.91;72.69;96707.13;5036167;28;20205;-70
2023/08/10 11:03:22;;;;;;;0.93;0.60;;;;;;;24.74;71.75;96709.09;5036097;28;20229;-70
2023/08/10 11:05:50;;;;;;;5.50;0.80;;;;;;;24.78;72.58;96707.53;5036000;28;20209;-70
2023/08/10 11:08:16;;;;;;;1.00;0.70;;;;;;;24.25;69.94;96712.00;5035581;28;20205;-70
2023/08/10 11:10:43;;;;;;;1.58;0.95;;;;;;;23.94;66.96;96703.75;5035636;28;20220;-70
2023/08/10 11:13:10;;;;;;;0.65;0.52;;;;;;;24.13;68.77;96707.78;5035848;28;20217;-70
2023/08/10 11:15:37;;;;;;;1.67;0.85;;;;;;;24.07;68.74;96703.38;5035811;28;20205;-70
2023/08/10 11:18:10;;;;;;;0.80;0.65;;;;;;;24.48;68.38;96700.16;5035022;28;20251;-70
2023/08/10 11:20:42;;;;;;;1.77;0.77;;;;;;;24.09;69.39;96701.28;5036808;28;20222;-70
2023/08/10 11:23:10;;;;;;;1.65;0.88;;;;;;;24.06;69.77;96699.09;5034797;28;20229;-70
2023/08/10 11:25:37;;;;;;;0.90;0.60;;;;;;;23.53;65.26;96693.44;5035062;28;20208;-70
2023/08/10 11:28:04;;;;;;;1.45;0.70;;;;;;;23.74;64.53;96691.88;5034897;28;20216;-70